sensor_id;sensor_type;location;lat;lon;timestamp;P1;durP1;ratioP1;P2;durP2;ratioP2
66919;SDS011;53831;52.090;17.026;2023-04-06T00:02:36;64.80;;;23.40;;
66919;SDS011;53831;52.090;17.026;2023-04-06T00:07:37;60.80;;;22.90;;
66919;SDS011;53831;52.090;17.026;2023-04-06T00:12:38;58.20;;;20.10;;
66919;SDS011;53831;52.090;17.026;2023-04-06T00:17:38;43.50;;;17.30;;
66919;SDS011;53831;52.090;17.026;2023-04-06T00:22:39;42.30;;;17.70;;
66919;SDS011;53831;52.090;17.026;2023-04-06T00:27:40;46.70;;;18.60;;
66919;SDS011;53831;52.090;17.026;2023-04-06T00:32:40;49.10;;;19.50;;
66919;SDS011;53831;52.090;17.026;2023-04-06T00:37:41;46.10;;;18.40;;
66919;SDS011;53831;52.090;17.026;2023-04-06T00:42:42;40.40;;;15.80;;
66919;SDS011;53831;52.090;17.026;2023-04-06T00:47:42;43.20;;;16.70;;
66919;SDS011;53831;52.090;17.026;2023-04-06T00:52:43;48.20;;;18.10;;
66919;SDS011;53831;52.090;17.026;2023-04-06T00:57:44;37.00;;;15.30;;
66919;SDS011;53831;52.090;17.026;2023-04-06T01:02:44;41.40;;;15.30;;
66919;SDS011;53831;52.090;17.026;2023-04-06T01:07:49;40.20;;;15.50;;
66919;SDS011;53831;52.090;17.026;2023-04-06T01:12:53;43.40;;;16.70;;
66919;SDS011;53831;52.090;17.026;2023-04-06T01:18:08;45.50;;;17.20;;
66919;SDS011;53831;52.090;17.026;2023-04-06T01:23:13;44.10;;;17.50;;
66919;SDS011;53831;52.090;17.026;2023-04-06T01:28:19;45.50;;;18.40;;
66919;SDS011;53831;52.090;17.026;2023-04-06T01:33:28;47.50;;;17.70;;
66919;SDS011;53831;52.090;17.026;2023-04-06T01:38:41;38.70;;;15.40;;
66919;SDS011;53831;52.090;17.026;2023-04-06T01:43:44;45.20;;;17.10;;
66919;SDS011;53831;52.090;17.026;2023-04-06T01:48:45;41.70;;;16.00;;
66919;SDS011;53831;52.090;17.026;2023-04-06T01:54:06;55.30;;;21.00;;
66919;SDS011;53831;52.090;17.026;2023-04-06T01:59:14;56.80;;;19.80;;
66919;SDS011;53831;52.090;17.026;2023-04-06T02:04:17;47.20;;;17.80;;
66919;SDS011;53831;52.090;17.026;2023-04-06T02:09:19;48.10;;;18.30;;
66919;SDS011;53831;52.090;17.026;2023-04-06T02:14:20;54.90;;;18.20;;
66919;SDS011;53831;52.090;17.026;2023-04-06T02:19:24;40.90;;;16.10;;
66919;SDS011;53831;52.090;17.026;2023-04-06T02:24:25;45.10;;;17.50;;
66919;SDS011;53831;52.090;17.026;2023-04-06T02:29:25;63.50;;;23.90;;
66919;SDS011;53831;52.090;17.026;2023-04-06T02:34:26;51.80;;;19.60;;
66919;SDS011;53831;52.090;17.026;2023-04-06T02:39:28;45.40;;;18.60;;
66919;SDS011;53831;52.090;17.026;2023-04-06T02:44:29;48.60;;;18.40;;
66919;SDS011;53831;52.090;17.026;2023-04-06T02:49:30;52.30;;;18.70;;
66919;SDS011;53831;52.090;17.026;2023-04-06T02:54:32;48.40;;;17.60;;
66919;SDS011;53831;52.090;17.026;2023-04-06T02:59:34;49.30;;;19.00;;
66919;SDS011;53831;52.090;17.026;2023-04-06T03:04:42;57.10;;;21.00;;
66919;SDS011;53831;52.090;17.026;2023-04-06T03:09:51;66.30;;;24.10;;
66919;SDS011;53831;52.090;17.026;2023-04-06T03:14:52;64.60;;;22.10;;
66919;SDS011;53831;52.090;17.026;2023-04-06T03:19:54;67.60;;;22.20;;
66919;SDS011;53831;52.090;17.026;2023-04-06T03:24:56;55.00;;;21.80;;
66919;SDS011;53831;52.090;17.026;2023-04-06T03:29:56;61.50;;;20.00;;
66919;SDS011;53831;52.090;17.026;2023-04-06T03:35:02;47.60;;;20.20;;
66919;SDS011;53831;52.090;17.026;2023-04-06T03:40:04;48.90;;;19.60;;
66919;SDS011;53831;52.090;17.026;2023-04-06T03:45:05;50.00;;;20.30;;
66919;SDS011;53831;52.090;17.026;2023-04-06T03:50:06;50.00;;;19.70;;
66919;SDS011;53831;52.090;17.026;2023-04-06T03:55:08;46.60;;;18.70;;
66919;SDS011;53831;52.090;17.026;2023-04-06T04:00:11;42.70;;;18.10;;
66919;SDS011;53831;52.090;17.026;2023-04-06T04:05:14;53.70;;;19.90;;
66919;SDS011;53831;52.090;17.026;2023-04-06T04:10:15;52.20;;;19.40;;
66919;SDS011;53831;52.090;17.026;2023-04-06T04:15:16;52.50;;;20.30;;
66919;SDS011;53831;52.090;17.026;2023-04-06T04:20:17;56.60;;;20.60;;
66919;SDS011;53831;52.090;17.026;2023-04-06T04:25:18;51.80;;;20.60;;
66919;SDS011;53831;52.090;17.026;2023-04-06T04:30:21;46.30;;;18.80;;
66919;SDS011;53831;52.090;17.026;2023-04-06T04:35:21;58.40;;;20.50;;
66919;SDS011;53831;52.090;17.026;2023-04-06T04:40:23;59.70;;;23.00;;
66919;SDS011;53831;52.090;17.026;2023-04-06T04:45:29;45.30;;;19.50;;
66919;SDS011;53831;52.090;17.026;2023-04-06T04:50:31;50.40;;;20.00;;
66919;SDS011;53831;52.090;17.026;2023-04-06T04:55:32;50.40;;;19.50;;
66919;SDS011;53831;52.090;17.026;2023-04-06T05:00:33;51.00;;;19.30;;
66919;SDS011;53831;52.090;17.026;2023-04-06T05:05:35;64.20;;;25.60;;
66919;SDS011;53831;52.090;17.026;2023-04-06T05:10:36;59.10;;;23.70;;
66919;SDS011;53831;52.090;17.026;2023-04-06T05:15:37;56.30;;;23.20;;
66919;SDS011;53831;52.090;17.026;2023-04-06T05:20:46;59.40;;;26.80;;
66919;SDS011;53831;52.090;17.026;2023-04-06T05:25:47;61.40;;;24.40;;
66919;SDS011;53831;52.090;17.026;2023-04-06T05:30:52;57.40;;;24.00;;
66919;SDS011;53831;52.090;17.026;2023-04-06T05:35:53;59.00;;;22.20;;
66919;SDS011;53831;52.090;17.026;2023-04-06T05:40:54;60.00;;;22.00;;
66919;SDS011;53831;52.090;17.026;2023-04-06T05:45:57;64.40;;;24.60;;
66919;SDS011;53831;52.090;17.026;2023-04-06T05:50:57;66.80;;;23.40;;
66919;SDS011;53831;52.090;17.026;2023-04-06T05:56:07;103.90;;;33.70;;
66919;SDS011;53831;52.090;17.026;2023-04-06T06:01:07;90.00;;;29.40;;
66919;SDS011;53831;52.090;17.026;2023-04-06T06:06:13;58.20;;;23.50;;
66919;SDS011;53831;52.090;17.026;2023-04-06T06:11:32;50.20;;;20.50;;
66919;SDS011;53831;52.090;17.026;2023-04-06T06:16:35;53.60;;;22.30;;
66919;SDS011;53831;52.090;17.026;2023-04-06T06:21:37;65.70;;;26.60;;
66919;SDS011;53831;52.090;17.026;2023-04-06T06:26:38;61.50;;;25.20;;
66919;SDS011;53831;52.090;17.026;2023-04-06T06:31:40;45.80;;;20.60;;
66919;SDS011;53831;52.090;17.026;2023-04-06T06:36:41;48.90;;;19.10;;
66919;SDS011;53831;52.090;17.026;2023-04-06T06:41:43;44.90;;;19.90;;
66919;SDS011;53831;52.090;17.026;2023-04-06T06:46:44;43.00;;;19.70;;
66919;SDS011;53831;52.090;17.026;2023-04-06T06:51:45;41.10;;;19.70;;
66919;SDS011;53831;52.090;17.026;2023-04-06T06:56:46;44.30;;;18.70;;
66919;SDS011;53831;52.090;17.026;2023-04-06T07:01:47;40.50;;;18.60;;
66919;SDS011;53831;52.090;17.026;2023-04-06T07:06:48;42.60;;;18.60;;
66919;SDS011;53831;52.090;17.026;2023-04-06T07:11:48;37.00;;;16.80;;
66919;SDS011;53831;52.090;17.026;2023-04-06T07:16:49;32.50;;;14.30;;
66919;SDS011;53831;52.090;17.026;2023-04-06T07:21:51;27.30;;;13.00;;
66919;SDS011;53831;52.090;17.026;2023-04-06T07:26:52;31.10;;;13.70;;
66919;SDS011;53831;52.090;17.026;2023-04-06T07:31:54;22.90;;;10.30;;
66919;SDS011;53831;52.090;17.026;2023-04-06T07:36:55;18.90;;;9.60;;
66919;SDS011;53831;52.090;17.026;2023-04-06T07:41:57;23.90;;;11.70;;
66919;SDS011;53831;52.090;17.026;2023-04-06T07:46:58;21.60;;;10.50;;
66919;SDS011;53831;52.090;17.026;2023-04-06T07:52:00;24.20;;;11.20;;
66919;SDS011;53831;52.090;17.026;2023-04-06T07:57:03;19.30;;;9.60;;
66919;SDS011;53831;52.090;17.026;2023-04-06T08:02:04;23.20;;;11.00;;
66919;SDS011;53831;52.090;17.026;2023-04-06T08:07:05;22.80;;;9.80;;
66919;SDS011;53831;52.090;17.026;2023-04-06T08:12:07;20.00;;;10.60;;
66919;SDS011;53831;52.090;17.026;2023-04-06T08:17:07;17.30;;;8.60;;
66919;SDS011;53831;52.090;17.026;2023-04-06T08:22:08;25.20;;;13.50;;
66919;SDS011;53831;52.090;17.026;2023-04-06T08:27:09;22.00;;;9.40;;
66919;SDS011;53831;52.090;17.026;2023-04-06T08:32:09;20.90;;;9.30;;
66919;SDS011;53831;52.090;17.026;2023-04-06T08:37:11;17.20;;;7.80;;
66919;SDS011;53831;52.090;17.026;2023-04-06T08:42:19;16.60;;;8.30;;
66919;SDS011;53831;52.090;17.026;2023-04-06T08:47:22;19.10;;;8.40;;
66919;SDS011;53831;52.090;17.026;2023-04-06T08:52:23;16.20;;;8.70;;
66919;SDS011;53831;52.090;17.026;2023-04-06T08:57:26;12.20;;;6.70;;
66919;SDS011;53831;52.090;17.026;2023-04-06T09:02:27;14.00;;;7.50;;
66919;SDS011;53831;52.090;17.026;2023-04-06T09:07:28;11.90;;;6.30;;
66919;SDS011;53831;52.090;17.026;2023-04-06T09:12:31;14.90;;;7.30;;
66919;SDS011;53831;52.090;17.026;2023-04-06T09:17:32;13.70;;;6.80;;
66919;SDS011;53831;52.090;17.026;2023-04-06T09:22:40;13.70;;;5.60;;
66919;SDS011;53831;52.090;17.026;2023-04-06T09:27:40;13.60;;;6.90;;
66919;SDS011;53831;52.090;17.026;2023-04-06T09:32:53;9.80;;;5.30;;
66919;SDS011;53831;52.090;17.026;2023-04-06T09:37:54;20.40;;;9.30;;
66919;SDS011;53831;52.090;17.026;2023-04-06T09:42:55;10.90;;;5.50;;
66919;SDS011;53831;52.090;17.026;2023-04-06T09:47:58;10.40;;;4.90;;
66919;SDS011;53831;52.090;17.026;2023-04-06T09:53:00;8.90;;;4.00;;
66919;SDS011;53831;52.090;17.026;2023-04-06T09:58:04;9.80;;;4.50;;
66919;SDS011;53831;52.090;17.026;2023-04-06T10:08:29;11.70;;;6.10;;
66919;SDS011;53831;52.090;17.026;2023-04-06T10:13:32;15.60;;;5.50;;
66919;SDS011;53831;52.090;17.026;2023-04-06T10:18:33;16.40;;;7.20;;
66919;SDS011;53831;52.090;17.026;2023-04-06T10:23:43;12.00;;;6.60;;
66919;SDS011;53831;52.090;17.026;2023-04-06T10:28:46;16.50;;;6.90;;
66919;SDS011;53831;52.090;17.026;2023-04-06T10:33:55;10.10;;;5.30;;
66919;SDS011;53831;52.090;17.026;2023-04-06T10:38:59;11.00;;;5.90;;
66919;SDS011;53831;52.090;17.026;2023-04-06T10:44:00;12.60;;;5.50;;
66919;SDS011;53831;52.090;17.026;2023-04-06T10:49:11;12.10;;;5.90;;
66919;SDS011;53831;52.090;17.026;2023-04-06T10:54:13;14.70;;;7.00;;
66919;SDS011;53831;52.090;17.026;2023-04-06T10:59:18;12.30;;;6.80;;
66919;SDS011;53831;52.090;17.026;2023-04-06T11:04:20;13.80;;;6.50;;
66919;SDS011;53831;52.090;17.026;2023-04-06T11:09:24;10.90;;;5.60;;
66919;SDS011;53831;52.090;17.026;2023-04-06T11:14:26;11.80;;;6.00;;
66919;SDS011;53831;52.090;17.026;2023-04-06T11:19:27;13.10;;;6.30;;
66919;SDS011;53831;52.090;17.026;2023-04-06T11:24:27;10.80;;;6.30;;
66919;SDS011;53831;52.090;17.026;2023-04-06T11:29:29;12.40;;;6.20;;
66919;SDS011;53831;52.090;17.026;2023-04-06T11:34:36;12.40;;;7.00;;
66919;SDS011;53831;52.090;17.026;2023-04-06T11:44:44;13.50;;;6.20;;
66919;SDS011;53831;52.090;17.026;2023-04-06T11:49:49;11.10;;;6.90;;
66919;SDS011;53831;52.090;17.026;2023-04-06T11:54:52;10.50;;;5.70;;
66919;SDS011;53831;52.090;17.026;2023-04-06T11:59:52;9.80;;;5.80;;
66919;SDS011;53831;52.090;17.026;2023-04-06T12:04:53;11.90;;;6.00;;
66919;SDS011;53831;52.090;17.026;2023-04-06T12:09:54;7.90;;;3.60;;
66919;SDS011;53831;52.090;17.026;2023-04-06T12:14:55;12.90;;;6.30;;
66919;SDS011;53831;52.090;17.026;2023-04-06T12:19:56;140.10;;;56.40;;
66919;SDS011;53831;52.090;17.026;2023-04-06T12:24:57;11.90;;;5.90;;
66919;SDS011;53831;52.090;17.026;2023-04-06T12:29:57;13.10;;;6.90;;
66919;SDS011;53831;52.090;17.026;2023-04-06T12:34:58;11.50;;;5.90;;
66919;SDS011;53831;52.090;17.026;2023-04-06T12:39:59;12.50;;;6.60;;
66919;SDS011;53831;52.090;17.026;2023-04-06T12:45:00;28.00;;;13.30;;
66919;SDS011;53831;52.090;17.026;2023-04-06T12:50:02;16.70;;;7.90;;
66919;SDS011;53831;52.090;17.026;2023-04-06T12:55:03;16.00;;;7.20;;
66919;SDS011;53831;52.090;17.026;2023-04-06T13:00:06;14.40;;;7.50;;
66919;SDS011;53831;52.090;17.026;2023-04-06T13:05:07;14.90;;;8.10;;
66919;SDS011;53831;52.090;17.026;2023-04-06T13:10:07;25.50;;;10.50;;
66919;SDS011;53831;52.090;17.026;2023-04-06T13:15:09;15.60;;;8.00;;
66919;SDS011;53831;52.090;17.026;2023-04-06T13:20:10;12.50;;;6.80;;
66919;SDS011;53831;52.090;17.026;2023-04-06T13:25:10;11.20;;;6.70;;
66919;SDS011;53831;52.090;17.026;2023-04-06T13:30:12;14.90;;;8.60;;
66919;SDS011;53831;52.090;17.026;2023-04-06T13:35:13;12.70;;;7.00;;
66919;SDS011;53831;52.090;17.026;2023-04-06T13:40:14;14.70;;;8.70;;
66919;SDS011;53831;52.090;17.026;2023-04-06T13:45:15;14.60;;;8.20;;
66919;SDS011;53831;52.090;17.026;2023-04-06T13:50:15;13.00;;;7.40;;
66919;SDS011;53831;52.090;17.026;2023-04-06T13:55:16;14.00;;;7.70;;
66919;SDS011;53831;52.090;17.026;2023-04-06T14:00:17;14.20;;;7.80;;
66919;SDS011;53831;52.090;17.026;2023-04-06T14:05:18;13.10;;;7.60;;
66919;SDS011;53831;52.090;17.026;2023-04-06T14:10:19;12.00;;;7.70;;
66919;SDS011;53831;52.090;17.026;2023-04-06T14:15:22;11.40;;;7.60;;
66919;SDS011;53831;52.090;17.026;2023-04-06T14:20:24;12.40;;;7.80;;
66919;SDS011;53831;52.090;17.026;2023-04-06T14:25:25;18.40;;;8.90;;
66919;SDS011;53831;52.090;17.026;2023-04-06T14:30:26;13.60;;;6.90;;
66919;SDS011;53831;52.090;17.026;2023-04-06T14:35:28;12.60;;;7.60;;
66919;SDS011;53831;52.090;17.026;2023-04-06T14:40:34;11.60;;;6.90;;
66919;SDS011;53831;52.090;17.026;2023-04-06T14:45:35;12.80;;;7.30;;
66919;SDS011;53831;52.090;17.026;2023-04-06T14:50:38;14.90;;;7.70;;
66919;SDS011;53831;52.090;17.026;2023-04-06T14:55:39;13.40;;;7.30;;
66919;SDS011;53831;52.090;17.026;2023-04-06T15:00:41;15.40;;;7.70;;
66919;SDS011;53831;52.090;17.026;2023-04-06T15:05:42;11.40;;;5.40;;
66919;SDS011;53831;52.090;17.026;2023-04-06T15:10:42;11.80;;;7.30;;
66919;SDS011;53831;52.090;17.026;2023-04-06T15:15:44;13.50;;;7.80;;
66919;SDS011;53831;52.090;17.026;2023-04-06T15:20:44;14.90;;;9.20;;
66919;SDS011;53831;52.090;17.026;2023-04-06T15:25:45;15.50;;;7.20;;
66919;SDS011;53831;52.090;17.026;2023-04-06T15:30:46;13.80;;;7.60;;
66919;SDS011;53831;52.090;17.026;2023-04-06T15:35:47;12.90;;;8.10;;
66919;SDS011;53831;52.090;17.026;2023-04-06T15:40:48;15.80;;;8.60;;
66919;SDS011;53831;52.090;17.026;2023-04-06T15:45:49;15.30;;;8.20;;
66919;SDS011;53831;52.090;17.026;2023-04-06T15:50:50;13.70;;;7.90;;
66919;SDS011;53831;52.090;17.026;2023-04-06T15:55:58;17.10;;;9.40;;
66919;SDS011;53831;52.090;17.026;2023-04-06T16:00:59;14.30;;;7.90;;
66919;SDS011;53831;52.090;17.026;2023-04-06T16:05:59;34.60;;;13.40;;
66919;SDS011;53831;52.090;17.026;2023-04-06T16:11:00;18.10;;;9.60;;
66919;SDS011;53831;52.090;17.026;2023-04-06T16:16:01;16.50;;;8.70;;
66919;SDS011;53831;52.090;17.026;2023-04-06T16:21:04;15.00;;;7.80;;
66919;SDS011;53831;52.090;17.026;2023-04-06T16:26:20;15.90;;;9.50;;
66919;SDS011;53831;52.090;17.026;2023-04-06T16:31:24;18.40;;;9.50;;
66919;SDS011;53831;52.090;17.026;2023-04-06T16:36:26;12.60;;;7.50;;
66919;SDS011;53831;52.090;17.026;2023-04-06T16:41:27;18.20;;;8.80;;
66919;SDS011;53831;52.090;17.026;2023-04-06T16:46:32;18.50;;;9.70;;
66919;SDS011;53831;52.090;17.026;2023-04-06T16:51:33;17.10;;;8.40;;
66919;SDS011;53831;52.090;17.026;2023-04-06T16:56:35;16.60;;;8.30;;
66919;SDS011;53831;52.090;17.026;2023-04-06T17:01:36;15.20;;;8.00;;
66919;SDS011;53831;52.090;17.026;2023-04-06T17:06:36;15.00;;;7.50;;
66919;SDS011;53831;52.090;17.026;2023-04-06T17:11:37;16.30;;;8.00;;
66919;SDS011;53831;52.090;17.026;2023-04-06T17:16:37;17.20;;;8.90;;
66919;SDS011;53831;52.090;17.026;2023-04-06T17:21:39;20.30;;;9.00;;
66919;SDS011;53831;52.090;17.026;2023-04-06T17:26:41;20.00;;;9.60;;
66919;SDS011;53831;52.090;17.026;2023-04-06T17:31:44;22.40;;;9.70;;
66919;SDS011;53831;52.090;17.026;2023-04-06T17:36:45;13.80;;;7.90;;
66919;SDS011;53831;52.090;17.026;2023-04-06T17:41:46;14.50;;;8.20;;
66919;SDS011;53831;52.090;17.026;2023-04-06T17:46:47;13.70;;;7.80;;
66919;SDS011;53831;52.090;17.026;2023-04-06T17:51:47;18.20;;;8.00;;
66919;SDS011;53831;52.090;17.026;2023-04-06T17:56:48;28.40;;;12.90;;
66919;SDS011;53831;52.090;17.026;2023-04-06T18:01:51;19.00;;;9.20;;
66919;SDS011;53831;52.090;17.026;2023-04-06T18:06:52;21.10;;;10.90;;
66919;SDS011;53831;52.090;17.026;2023-04-06T18:11:52;22.90;;;11.60;;
66919;SDS011;53831;52.090;17.026;2023-04-06T18:16:53;26.60;;;13.60;;
66919;SDS011;53831;52.090;17.026;2023-04-06T18:21:54;40.30;;;19.80;;
66919;SDS011;53831;52.090;17.026;2023-04-06T18:26:55;52.40;;;20.50;;
66919;SDS011;53831;52.090;17.026;2023-04-06T18:31:57;69.10;;;28.00;;
66919;SDS011;53831;52.090;17.026;2023-04-06T18:36:57;57.50;;;25.90;;
66919;SDS011;53831;52.090;17.026;2023-04-06T18:41:59;71.00;;;30.50;;
66919;SDS011;53831;52.090;17.026;2023-04-06T18:47:00;48.40;;;21.30;;
66919;SDS011;53831;52.090;17.026;2023-04-06T18:52:01;55.30;;;28.30;;
66919;SDS011;53831;52.090;17.026;2023-04-06T18:57:02;63.90;;;25.00;;
66919;SDS011;53831;52.090;17.026;2023-04-06T19:02:04;85.00;;;31.20;;
66919;SDS011;53831;52.090;17.026;2023-04-06T19:07:04;144.60;;;53.20;;
66919;SDS011;53831;52.090;17.026;2023-04-06T19:12:05;61.30;;;21.70;;
66919;SDS011;53831;52.090;17.026;2023-04-06T19:17:06;81.70;;;33.50;;
66919;SDS011;53831;52.090;17.026;2023-04-06T19:22:07;47.70;;;19.50;;
66919;SDS011;53831;52.090;17.026;2023-04-06T19:27:08;46.50;;;20.40;;
66919;SDS011;53831;52.090;17.026;2023-04-06T19:32:09;71.90;;;28.10;;
66919;SDS011;53831;52.090;17.026;2023-04-06T19:37:11;39.90;;;16.90;;
66919;SDS011;53831;52.090;17.026;2023-04-06T19:42:12;58.40;;;17.80;;
66919;SDS011;53831;52.090;17.026;2023-04-06T19:47:15;74.80;;;27.90;;
66919;SDS011;53831;52.090;17.026;2023-04-06T19:52:15;97.30;;;28.40;;
66919;SDS011;53831;52.090;17.026;2023-04-06T19:57:16;67.00;;;23.60;;
66919;SDS011;53831;52.090;17.026;2023-04-06T20:02:17;101.50;;;37.40;;
66919;SDS011;53831;52.090;17.026;2023-04-06T20:07:18;67.30;;;22.90;;
66919;SDS011;53831;52.090;17.026;2023-04-06T20:12:19;48.00;;;17.20;;
66919;SDS011;53831;52.090;17.026;2023-04-06T20:17:19;34.20;;;16.70;;
66919;SDS011;53831;52.090;17.026;2023-04-06T20:22:21;23.70;;;12.00;;
66919;SDS011;53831;52.090;17.026;2023-04-06T20:27:21;27.00;;;12.60;;
66919;SDS011;53831;52.090;17.026;2023-04-06T20:32:22;22.70;;;11.20;;
66919;SDS011;53831;52.090;17.026;2023-04-06T20:37:23;24.70;;;12.50;;
66919;SDS011;53831;52.090;17.026;2023-04-06T20:42:24;26.70;;;12.60;;
66919;SDS011;53831;52.090;17.026;2023-04-06T20:47:24;28.60;;;13.00;;
66919;SDS011;53831;52.090;17.026;2023-04-06T20:52:26;27.40;;;12.00;;
66919;SDS011;53831;52.090;17.026;2023-04-06T20:57:27;22.00;;;11.70;;
66919;SDS011;53831;52.090;17.026;2023-04-06T21:02:27;27.40;;;11.80;;
66919;SDS011;53831;52.090;17.026;2023-04-06T21:07:29;29.00;;;11.80;;
66919;SDS011;53831;52.090;17.026;2023-04-06T21:12:29;27.30;;;12.30;;
66919;SDS011;53831;52.090;17.026;2023-04-06T21:17:30;23.30;;;10.50;;
66919;SDS011;53831;52.090;17.026;2023-04-06T21:22:31;22.20;;;11.00;;
66919;SDS011;53831;52.090;17.026;2023-04-06T21:27:32;28.10;;;10.70;;
66919;SDS011;53831;52.090;17.026;2023-04-06T21:32:33;28.20;;;10.70;;
66919;SDS011;53831;52.090;17.026;2023-04-06T21:37:34;20.20;;;8.90;;
66919;SDS011;53831;52.090;17.026;2023-04-06T21:42:34;17.90;;;8.30;;
66919;SDS011;53831;52.090;17.026;2023-04-06T21:47:35;15.90;;;7.70;;
66919;SDS011;53831;52.090;17.026;2023-04-06T21:52:36;16.10;;;7.40;;
66919;SDS011;53831;52.090;17.026;2023-04-06T21:57:36;19.80;;;8.10;;
66919;SDS011;53831;52.090;17.026;2023-04-06T22:02:37;17.80;;;7.90;;
66919;SDS011;53831;52.090;17.026;2023-04-06T22:07:40;18.70;;;8.10;;
66919;SDS011;53831;52.090;17.026;2023-04-06T22:12:40;17.10;;;7.70;;
66919;SDS011;53831;52.090;17.026;2023-04-06T22:17:41;18.00;;;7.90;;
66919;SDS011;53831;52.090;17.026;2023-04-06T22:22:42;16.80;;;7.90;;
66919;SDS011;53831;52.090;17.026;2023-04-06T22:27:42;21.30;;;9.60;;
66919;SDS011;53831;52.090;17.026;2023-04-06T22:32:43;21.80;;;11.30;;
66919;SDS011;53831;52.090;17.026;2023-04-06T22:37:44;20.00;;;9.20;;
66919;SDS011;53831;52.090;17.026;2023-04-06T22:42:44;23.30;;;8.70;;
66919;SDS011;53831;52.090;17.026;2023-04-06T22:47:45;16.30;;;6.70;;
66919;SDS011;53831;52.090;17.026;2023-04-06T22:52:46;16.80;;;7.90;;
66919;SDS011;53831;52.090;17.026;2023-04-06T22:57:46;18.70;;;8.60;;
66919;SDS011;53831;52.090;17.026;2023-04-06T23:02:47;13.60;;;5.20;;
66919;SDS011;53831;52.090;17.026;2023-04-06T23:07:48;7.30;;;3.80;;
66919;SDS011;53831;52.090;17.026;2023-04-06T23:12:50;10.30;;;4.20;;
66919;SDS011;53831;52.090;17.026;2023-04-06T23:17:51;14.80;;;6.30;;
66919;SDS011;53831;52.090;17.026;2023-04-06T23:22:52;16.80;;;6.00;;
66919;SDS011;53831;52.090;17.026;2023-04-06T23:27:52;13.20;;;4.40;;
66919;SDS011;53831;52.090;17.026;2023-04-06T23:32:53;16.30;;;5.30;;
66919;SDS011;53831;52.090;17.026;2023-04-06T23:37:53;11.60;;;4.90;;
66919;SDS011;53831;52.090;17.026;2023-04-06T23:42:54;17.00;;;6.60;;
66919;SDS011;53831;52.090;17.026;2023-04-06T23:47:55;19.00;;;6.70;;
66919;SDS011;53831;52.090;17.026;2023-04-06T23:52:55;16.10;;;5.60;;
66919;SDS011;53831;52.090;17.026;2023-04-06T23:57:56;12.70;;;5.40;;
